PILOTS ONLINE: 275    ATC ONLINE: 39

NFFN - Nadi International Airport

Location

IATA NAN
City Nadi
Country  Fiji
Latitude 17° 45' 19" S
Longitude 177° 26' 34" E
Elevation 59 ft
Type Medium Airport

Runways

02/20 10739 ft / 150 ft
09/27 7007 ft / 150 ft

Weather

METAR
2014/08/01 09:00
NFFN 010900Z 10012KT 9999 FEW030 23/18 Q1018 NOSIG
TAF
2014/08/01 06:05
TAF NFFN 010401Z 0106/0206 12005KT 9999 SCT028 SCT050 
      BECMG 0123/0201 29012KT 
      BECMG 0204/0206 12005KT

Outbound flights

Inbound flights

VOZ181  YSSY - Sydney, Australia
Jack Dutton